createdAt,value
2023-01-26T02:11:34.128Z,-2.50
2023-01-26T02:12:38.195Z,-2.47
2023-01-26T02:13:47.048Z,-2.43
2023-01-26T02:14:52.929Z,-2.43
2023-01-26T02:15:59.753Z,-2.40
2023-01-26T02:17:05.329Z,-2.39
2023-01-26T02:18:09.256Z,-2.39
2023-01-26T02:19:21.781Z,-2.37
2023-01-26T02:20:34.676Z,-2.35
2023-01-26T02:21:40.077Z,-2.33
2023-01-26T02:22:55.983Z,-2.33
2023-01-26T02:24:14.988Z,-2.33
2023-01-26T02:47:17.310Z,-2.47
2023-01-26T02:48:38.659Z,-2.40
2023-01-26T02:49:45.656Z,-2.38
2023-01-26T02:50:52.354Z,-2.38
2023-01-26T02:52:01.622Z,-2.36
2023-01-26T02:56:02.885Z,-2.33
2023-01-26T02:57:06.972Z,-2.33
2023-01-26T02:58:10.835Z,-2.32
2023-01-26T02:59:14.684Z,-2.32
2023-01-26T03:01:44.442Z,-2.31
2023-01-26T03:02:49.940Z,-2.31
2023-01-26T03:03:53.901Z,-2.28
2023-01-26T03:04:59.663Z,-2.28
2023-01-26T03:06:07.675Z,-2.28
2023-01-26T03:07:11.684Z,-2.27
2023-01-26T03:08:15.633Z,-2.28
2023-01-26T03:09:19.725Z,-2.28
2023-01-26T03:10:23.771Z,-2.28
2023-01-26T03:11:27.757Z,-2.27
2023-01-26T03:12:31.866Z,-2.26
2023-01-26T03:13:36.153Z,-2.26
2023-01-26T03:14:41.595Z,-2.26
2023-01-26T03:15:45.546Z,-2.29
2023-01-26T03:16:51.063Z,-2.28
2023-01-26T03:18:03.641Z,-2.29
2023-01-26T03:19:10.030Z,-2.30
2023-01-26T03:20:14.134Z,-2.31
2023-01-26T03:21:19.915Z,-2.31
2023-01-26T03:22:23.863Z,-2.32
2023-01-26T03:23:29.341Z,-2.32
2023-01-26T03:24:33.466Z,-2.31
2023-01-26T03:25:38.006Z,-2.32
2023-01-26T03:26:43.727Z,-2.32
2023-01-26T03:27:49.363Z,-2.32
2023-01-26T03:28:53.300Z,-2.34
2023-01-26T03:29:58.333Z,-2.36
2023-01-26T03:31:05.741Z,-2.37
2023-01-26T03:32:09.720Z,-2.37
2023-01-26T03:33:13.687Z,-2.36
2023-01-26T03:34:19.148Z,-2.38
2023-01-26T03:35:29.165Z,-2.40
2023-01-26T03:36:31.894Z,-2.40
2023-01-26T03:37:35.904Z,-2.39
2023-01-26T03:38:39.902Z,-2.39
2023-01-26T03:39:45.606Z,-2.41
2023-01-26T03:40:49.573Z,-2.42
2023-01-26T03:41:53.520Z,-2.43
2023-01-26T03:42:59.156Z,-2.43
2023-01-26T03:44:03.210Z,-2.48
2023-01-26T03:45:09.365Z,-2.48
2023-01-26T03:46:13.375Z,-2.51
2023-01-26T03:47:18.937Z,-2.51
2023-01-26T03:48:22.906Z,-2.74
2023-01-26T03:49:31.075Z,-2.59
2023-01-26T03:50:37.347Z,-2.59
2023-01-26T03:51:41.382Z,-2.59
2023-01-26T03:52:46.883Z,-2.59
2023-01-26T03:53:52.518Z,-2.61
2023-01-26T03:54:56.501Z,-2.61
2023-01-26T03:56:00.828Z,-2.61
2023-01-26T03:57:04.847Z,-2.61
2023-01-26T03:58:10.334Z,-2.61
2023-01-26T03:59:14.286Z,-2.61
2023-01-26T04:00:18.570Z,-2.61
2023-01-26T04:01:25.968Z,-2.61
2023-01-26T04:02:29.842Z,-2.61
2023-01-26T04:03:33.889Z,-2.61
2023-01-26T04:04:37.850Z,-2.62
2023-01-26T04:05:43.212Z,-2.61
2023-01-26T04:06:49.301Z,-2.61
2023-01-26T04:07:53.393Z,-2.64
2023-01-26T04:09:01.971Z,-2.65
2023-01-26T04:10:07.759Z,-2.67
2023-01-26T04:11:11.674Z,-2.69
2023-01-26T04:12:17.167Z,-2.69
2023-01-26T04:13:23.179Z,-2.69
2023-01-26T04:14:28.788Z,-2.70
2023-01-26T04:15:33.521Z,-2.73
2023-01-26T04:16:37.514Z,-2.73
2023-01-26T04:17:42.957Z,-2.73
2023-01-26T04:18:48.824Z,-2.74
2023-01-26T04:19:53.226Z,-2.74
2023-01-26T04:21:00.277Z,-2.79
2023-01-26T04:22:04.272Z,-2.79
2023-01-26T04:23:09.796Z,-2.77
2023-01-26T04:24:16.545Z,-2.75
2023-01-26T04:25:21.871Z,-2.76
2023-01-26T04:26:28.179Z,-2.75
2023-01-26T04:27:32.060Z,-2.75
2023-01-26T04:28:38.975Z,-2.76
2023-01-26T04:29:42.883Z,-2.74
2023-01-26T04:30:46.858Z,-2.74
2023-01-26T04:31:50.851Z,-2.74
2023-01-26T04:32:54.826Z,-2.73
2023-01-26T04:34:01.409Z,-2.73
2023-01-26T04:35:06.858Z,-2.72
2023-01-26T04:36:11.613Z,-2.70
2023-01-26T04:37:15.493Z,-2.70
2023-01-26T04:38:19.344Z,-2.69
2023-01-26T04:39:23.205Z,-2.68
2023-01-26T04:40:27.195Z,-2.68
2023-01-26T04:41:32.147Z,-2.65
2023-01-26T04:42:36.076Z,-2.64
2023-01-26T04:43:40.081Z,-2.64
2023-01-26T04:44:46.250Z,-2.63
2023-01-26T05:12:41.069Z,-2.61
2023-01-26T05:13:45.424Z,-2.58
2023-01-26T05:14:50.953Z,-2.58
2023-01-26T05:15:54.921Z,-2.57
2023-01-26T05:17:03.831Z,-2.58
2023-01-26T05:18:09.422Z,-2.56
2023-01-26T05:34:23.771Z,-2.78
2023-01-26T05:37:01.987Z,-2.72
2023-01-26T05:38:12.785Z,-2.70
2023-01-26T07:37:09.099Z,-2.27
2023-01-26T07:38:13.056Z,-2.24
2023-01-26T07:39:18.991Z,-2.20
2023-01-26T07:40:24.824Z,-2.18
2023-01-26T07:41:30.188Z,-2.14
2023-01-26T07:42:36.492Z,-2.12
2023-01-26T07:43:40.853Z,-2.10
2023-01-26T07:44:44.871Z,-2.10
2023-01-26T07:45:53.029Z,-2.06
2023-01-26T07:47:04.741Z,-2.04
2023-01-26T07:48:03.360Z,-2.04
2023-01-26T07:49:07.467Z,-2.04
2023-01-26T07:50:18.281Z,-2.00
2023-01-26T07:51:23.919Z,-1.98
2023-01-26T07:52:27.941Z,-1.96
2023-01-26T07:53:32.652Z,-1.93
2023-01-26T07:54:38.589Z,-1.93
2023-01-26T07:56:54.371Z,-1.92
2023-01-26T07:57:58.358Z,-1.89
2023-01-26T12:15:16.305Z,-0.40
2023-01-26T12:16:41.514Z,-0.32
2023-01-26T12:18:09.239Z,-0.27
2023-01-26T12:19:30.664Z,-0.21
2023-01-26T12:20:54.052Z,-0.24
2023-01-26T20:28:04.085Z,-1.41
2023-01-26T21:39:52.950Z,-1.74
2023-01-26T21:41:05.691Z,-1.37
2023-01-26T21:42:09.682Z,-1.36
2023-01-26T21:43:16.171Z,-1.35
